Главная страница
METAR-TAF:

METAR-TAF

Аэропорты :

Гейтерсберг, Мэриленд, США

широта: 39-10-06N, долгота: 077-09-58W, высота над уровнем моря: 164 м

Текущие метеонаблюдения

Эта сводка был подготовлена 54 минут назад, в 00:56 UTC
Ветер 8 Узел от северно-северо-западный
Температура -1°C
Влажность 64%
Давление 1022 hPa
Видимость: 16.1 км
ясное небо

METAR: KGAI 130056Z AUTO 33008KT 10SM CLR M01/M07 A3018 RMK AO2 SLP240 T10111072 FZRANO

Время: 20:50 (01:50 UTC)


TAF: отсутствует

Метеонаблюдения и прогнозы для более 4000 аэропортов (сводки METAR и TAF).

Имеющиеся станции представлены на карте желтыми и красными точками.

Чтобы увидеть название станции, наведите на нее мышь.

Затем щелкните, чтобы увидеть метеонаблюдения и метеопрогнозы.

Управление картой: чтобы увеличить масштаб, щелкните зеленые кнопки с черным крестиком; чтобы уменьшить масштаб, щелкните зеленую кнопку с тире; для просмотра соседних карт щелкайте зеленые стрелки.


METAR-TAF: